createdAt,value
2022-11-21T00:01:27.105Z,98271.13
2022-11-21T00:03:54.089Z,98275.34
2022-11-21T00:06:22.273Z,98266.00
2022-11-21T00:08:49.334Z,98256.13
2022-11-21T00:11:16.665Z,98241.97
2022-11-21T00:13:44.443Z,98238.91
2022-11-21T00:16:14.665Z,98224.22
2022-11-21T00:18:42.629Z,98239.00
2022-11-21T00:21:15.299Z,98225.56
2022-11-21T00:23:43.375Z,98227.97
2022-11-21T00:26:12.196Z,98220.13
2022-11-21T00:28:39.327Z,98218.19
2022-11-21T00:31:06.852Z,98219.34
2022-11-21T00:33:39.479Z,98212.13
2022-11-21T00:36:09.997Z,98209.72
2022-11-21T00:38:37.763Z,98214.53
2022-11-21T00:41:05.802Z,98205.09
2022-11-21T00:43:33.064Z,98196.09
2022-11-21T00:46:03.201Z,98172.88
2022-11-21T00:48:32.219Z,98158.88
2022-11-21T00:51:01.097Z,98153.38
2022-11-21T00:53:28.657Z,98152.72
2022-11-21T00:55:55.780Z,98150.06
2022-11-21T00:58:22.733Z,98144.00
2022-11-21T01:00:50.066Z,98153.53
2022-11-21T01:03:17.645Z,98145.59
2022-11-21T01:05:45.290Z,98139.38
2022-11-21T01:08:12.368Z,98149.63
2022-11-21T01:10:39.286Z,98153.63
2022-11-21T01:13:06.679Z,98147.66
2022-11-21T01:15:34.390Z,98138.03
2022-11-21T01:18:01.218Z,98136.53
2022-11-21T01:20:28.236Z,98134.56
2022-11-21T01:22:55.326Z,98142.94
2022-11-21T01:25:22.470Z,98128.25
2022-11-21T01:27:49.648Z,98112.75
2022-11-21T01:30:17.805Z,98108.66
2022-11-21T01:32:48.456Z,98102.53
2022-11-21T01:35:16.312Z,98103.16
2022-11-21T01:37:43.596Z,98086.06
2022-11-21T01:40:11.631Z,98082.41
2022-11-21T01:43:10.318Z,98085.50
2022-11-21T01:46:00.042Z,98090.25
2022-11-21T01:48:41.383Z,98081.97
2022-11-21T01:51:32.816Z,98054.63
2022-11-21T01:54:06.604Z,98071.28
2022-11-21T01:57:02.043Z,98045.03
2022-11-21T01:59:40.960Z,98044.22
2022-11-21T02:02:10.300Z,98057.94
2022-11-21T02:04:39.545Z,98056.09
2022-11-21T02:07:08.316Z,98041.44
2022-11-21T02:09:39.766Z,98025.88
2022-11-21T02:12:18.396Z,98021.47
2022-11-21T02:14:45.551Z,98029.56
2022-11-21T02:17:12.549Z,98024.56
2022-11-21T02:20:05.639Z,98022.34
2022-11-21T02:23:13.042Z,98023.63
2022-11-21T02:25:42.461Z,98004.56
2022-11-21T02:28:13.485Z,98018.09
2022-11-21T02:30:42.661Z,98011.44
2022-11-21T02:33:11.329Z,98009.97
2022-11-21T02:35:39.648Z,97991.47
2022-11-21T02:38:29.199Z,97981.50
2022-11-21T02:41:32.484Z,97979.91
2022-11-21T02:44:05.600Z,97986.16
2022-11-21T02:46:35.331Z,97988.66
2022-11-21T02:49:06.819Z,97956.81
2022-11-21T02:51:33.573Z,97981.63
2022-11-21T02:54:00.514Z,97967.81
2022-11-21T02:56:30.543Z,97974.22
2022-11-21T02:58:57.849Z,97965.09
2022-11-21T03:01:25.040Z,97962.81
2022-11-21T03:03:53.294Z,97966.94
2022-11-21T03:06:20.325Z,97960.31
2022-11-21T03:08:47.236Z,97950.13
2022-11-21T03:11:14.309Z,97952.53
2022-11-21T03:13:42.007Z,97957.41
2022-11-21T03:16:09.004Z,97967.63
2022-11-21T03:18:37.536Z,97961.31
2022-11-21T03:21:05.003Z,97999.50
2022-11-21T03:23:32.029Z,97984.88
2022-11-21T03:26:00.388Z,97984.06
2022-11-21T03:28:27.404Z,98006.66
2022-11-21T03:30:54.327Z,98023.59
2022-11-21T03:33:21.482Z,97983.31
2022-11-21T03:35:48.479Z,97958.53
2022-11-21T03:38:15.546Z,97941.00
2022-11-21T03:40:42.532Z,97929.50
2022-11-21T03:43:09.901Z,97935.38
2022-11-21T03:45:36.918Z,97930.50
2022-11-21T03:48:04.156Z,97919.41
2022-11-21T03:50:31.311Z,97922.19
2022-11-21T03:52:59.335Z,97934.72
2022-11-21T03:55:26.294Z,97938.75
2022-11-21T03:57:53.273Z,97949.34
2022-11-21T04:00:20.435Z,97950.84
2022-11-21T04:02:47.802Z,97929.56
2022-11-21T04:05:15.189Z,97929.84
2022-11-21T04:07:42.119Z,97915.75
2022-11-21T04:10:09.522Z,97904.44
2022-11-21T04:12:36.640Z,97897.63
2022-11-21T04:15:04.652Z,97879.75
2022-11-21T04:17:33.881Z,97878.53
2022-11-21T04:20:00.708Z,97885.63
2022-11-21T04:22:27.930Z,97870.63
2022-11-21T04:24:54.850Z,97883.22
2022-11-21T04:27:21.889Z,97897.03
2022-11-21T04:29:48.936Z,97926.56
2022-11-21T04:32:15.871Z,97932.00
2022-11-21T04:34:42.840Z,97935.91
2022-11-21T04:37:11.779Z,97930.25
2022-11-21T04:39:38.931Z,97929.50
2022-11-21T04:42:05.842Z,97929.56
2022-11-21T04:44:32.966Z,97928.38
2022-11-21T04:47:05.034Z,97926.31
2022-11-21T04:49:33.021Z,97934.19
2022-11-21T04:51:59.907Z,97916.63
2022-11-21T04:54:27.292Z,97900.72
2022-11-21T04:56:54.581Z,97891.19
2022-11-21T04:59:21.812Z,97883.84
2022-11-21T05:01:48.824Z,97893.94
2022-11-21T05:04:16.046Z,97904.13
2022-11-21T05:06:43.097Z,97902.03
2022-11-21T05:09:10.564Z,97904.31
2022-11-21T05:11:56.529Z,97898.22
2022-11-21T05:14:26.936Z,97902.47
2022-11-21T05:16:54.862Z,97898.50
2022-11-21T05:19:22.138Z,97895.69
2022-11-21T05:21:51.070Z,97887.69
2022-11-21T05:24:18.333Z,97890.81
2022-11-21T05:26:46.464Z,97876.16
2022-11-21T05:29:14.421Z,97887.69
2022-11-21T05:31:41.638Z,97882.47
2022-11-21T05:34:09.577Z,97881.19
2022-11-21T05:36:36.922Z,97885.75
2022-11-21T05:39:05.133Z,97883.22
2022-11-21T05:41:33.030Z,97891.34
2022-11-21T05:44:00.112Z,97896.88
2022-11-21T05:46:27.558Z,97887.72
2022-11-21T05:48:56.056Z,97898.78
2022-11-21T05:51:23.654Z,97887.88
2022-11-21T05:53:51.678Z,97893.41
2022-11-21T05:56:23.355Z,97888.47
2022-11-21T05:58:50.682Z,97904.22
2022-11-21T06:01:41.017Z,97894.34
2022-11-21T06:04:09.199Z,97870.31
2022-11-21T06:06:37.147Z,97888.03
2022-11-21T06:09:04.889Z,97902.34
2022-11-21T06:11:32.475Z,97899.06
2022-11-21T06:13:59.632Z,97886.94
2022-11-21T06:16:27.208Z,97882.28
2022-11-21T06:18:58.808Z,97893.25
2022-11-21T06:21:29.160Z,97893.25
2022-11-21T06:23:58.895Z,97897.75
2022-11-21T06:26:28.122Z,97890.13
2022-11-21T06:28:56.192Z,97908.56
2022-11-21T06:31:25.611Z,97898.75
2022-11-21T06:33:55.516Z,97917.50
2022-11-21T06:36:28.139Z,97906.16
2022-11-21T06:38:56.923Z,97869.09
2022-11-21T06:41:26.944Z,97898.28
2022-11-21T06:43:54.290Z,97896.50
2022-11-21T06:46:22.226Z,97898.16
2022-11-21T06:48:53.353Z,97900.69
2022-11-21T06:51:22.635Z,97908.28
2022-11-21T06:53:58.579Z,97909.09
2022-11-21T06:56:28.927Z,97905.66
2022-11-21T06:58:57.752Z,97900.66
2022-11-21T07:01:28.079Z,97910.38
2022-11-21T07:03:56.061Z,97902.22
2022-11-21T07:06:24.220Z,97903.53
2022-11-21T07:09:25.367Z,97907.66
2022-11-21T07:11:42.549Z,97908.59
2022-11-21T07:14:10.851Z,97917.47
2022-11-21T07:16:40.877Z,97900.19
2022-11-21T07:19:09.292Z,97917.69
2022-11-21T07:21:36.493Z,97916.66
2022-11-21T07:24:04.507Z,97915.63
2022-11-21T07:26:32.114Z,97912.59
2022-11-21T07:29:01.394Z,97916.28
2022-11-21T07:31:31.510Z,97933.06
2022-11-21T07:33:59.521Z,97929.97
2022-11-21T07:36:26.847Z,97917.81
2022-11-21T07:38:55.641Z,97925.84
2022-11-21T07:41:22.949Z,97927.13
2022-11-21T07:43:53.128Z,97926.81
2022-11-21T07:46:20.658Z,97936.41
2022-11-21T07:48:48.317Z,97929.34
2022-11-21T07:51:15.341Z,97934.53
2022-11-21T07:53:42.981Z,97932.19
2022-11-21T07:56:13.637Z,97935.41
2022-11-21T07:58:41.053Z,97933.09
2022-11-21T08:01:09.037Z,97943.50
2022-11-21T08:03:37.108Z,97945.91
2022-11-21T08:06:07.400Z,97945.97
2022-11-21T08:08:35.192Z,97947.19
2022-11-21T08:11:06.288Z,97949.59
2022-11-21T08:13:34.631Z,97952.78
2022-11-21T08:16:05.864Z,97938.50
2022-11-21T08:18:34.029Z,97960.78
2022-11-21T08:21:02.918Z,97954.03
2022-11-21T08:23:31.139Z,97972.69
2022-11-21T08:25:59.164Z,97965.97
2022-11-21T08:28:26.689Z,97975.94
2022-11-21T08:30:54.552Z,97986.22
2022-11-21T08:33:24.167Z,97993.38
2022-11-21T08:35:51.341Z,97993.31
2022-11-21T08:38:18.603Z,98000.03
2022-11-21T08:40:48.129Z,98005.97
2022-11-21T08:43:15.547Z,98000.78
2022-11-21T08:45:46.218Z,98012.59
2022-11-21T08:48:13.456Z,98028.56
2022-11-21T08:50:41.077Z,98024.41
2022-11-21T08:53:08.369Z,98037.63
2022-11-21T08:55:36.424Z,98039.13
2022-11-21T08:58:03.947Z,98045.84
2022-11-21T09:00:32.325Z,98057.97
2022-11-21T09:02:59.335Z,98058.34
2022-11-21T09:05:26.920Z,98073.31
2022-11-21T09:07:58.324Z,98083.44
2022-11-21T09:10:29.608Z,98102.38
2022-11-21T09:13:01.424Z,98106.63
2022-11-21T09:15:48.010Z,98109.34
2022-11-21T09:18:17.881Z,98116.59
2022-11-21T09:20:48.068Z,98117.63
2022-11-21T09:23:16.118Z,98107.19
2022-11-21T09:25:47.037Z,98133.38
2022-11-21T09:28:16.270Z,98121.00
2022-11-21T09:30:44.311Z,98139.25
2022-11-21T09:33:13.611Z,98130.78
2022-11-21T09:35:41.495Z,98129.66
2022-11-21T09:38:11.161Z,98135.47
2022-11-21T09:40:46.693Z,98133.59
2022-11-21T09:44:06.207Z,98148.38
2022-11-21T09:46:42.272Z,98149.09
2022-11-21T09:49:13.333Z,98149.03
2022-11-21T09:51:44.236Z,98152.72
2022-11-21T09:54:27.517Z,98161.16
2022-11-21T09:57:01.480Z,98159.63
2022-11-21T09:59:45.252Z,98176.13
2022-11-21T10:02:18.662Z,98176.56
2022-11-21T10:04:47.192Z,98178.69
2022-11-21T10:07:14.407Z,98187.63
2022-11-21T10:10:09.476Z,98187.09
2022-11-21T10:12:40.337Z,98182.97
2022-11-21T10:15:26.691Z,98181.03
2022-11-21T10:18:15.849Z,98188.41
2022-11-21T10:21:14.099Z,98194.31
2022-11-21T10:23:51.967Z,98182.00
2022-11-21T10:26:41.122Z,98188.25
2022-11-21T10:29:19.086Z,98207.13
2022-11-21T10:31:47.308Z,98194.47
2022-11-21T10:34:20.263Z,98192.59
2022-11-21T10:36:55.794Z,98202.59
2022-11-21T10:39:46.353Z,98184.19
2022-11-21T10:42:25.918Z,98216.50
2022-11-21T10:45:11.991Z,98214.63
2022-11-21T10:47:39.932Z,98211.69
2022-11-21T10:50:10.435Z,98201.38
2022-11-21T10:52:51.084Z,98205.09
2022-11-21T10:55:18.934Z,98208.69
2022-11-21T10:57:54.674Z,98218.63
2022-11-21T11:00:27.587Z,98217.91
2022-11-21T11:03:04.419Z,98233.94
2022-11-21T11:05:34.550Z,98218.91
2022-11-21T11:08:04.232Z,98247.22
2022-11-21T11:10:33.913Z,98239.28
2022-11-21T11:16:10.676Z,98244.09
2022-11-21T11:18:58.896Z,98238.06
2022-11-21T11:21:41.821Z,98245.59
2022-11-21T11:24:11.786Z,98240.38
2022-11-21T11:26:49.290Z,98237.78
2022-11-21T11:29:22.392Z,98228.88
2022-11-21T11:32:04.486Z,98230.56
2022-11-21T11:34:49.579Z,98235.72
2022-11-21T11:37:40.858Z,98256.22
2022-11-21T11:40:17.770Z,98253.75
2022-11-21T11:43:31.348Z,98256.41
2022-11-21T11:46:47.226Z,98246.84
2022-11-21T11:49:55.248Z,98249.44
2022-11-21T11:52:29.341Z,98253.38
2022-11-21T11:55:02.604Z,98259.84
2022-11-21T11:57:33.013Z,98264.84
2022-11-21T12:00:33.773Z,98275.78
2022-11-21T12:03:03.966Z,98264.38
2022-11-21T12:05:33.233Z,98272.09
2022-11-21T12:11:25.313Z,98256.84
2022-11-21T12:13:56.655Z,98247.09
2022-11-21T12:16:27.515Z,98264.53
2022-11-21T12:19:08.645Z,98266.09
2022-11-21T12:21:36.284Z,98269.53
2022-11-21T12:24:10.104Z,98268.09
2022-11-21T12:27:03.184Z,98278.91
2022-11-21T12:29:33.162Z,98283.63
2022-11-21T12:32:28.323Z,98279.09
2022-11-21T12:35:21.601Z,98274.19
2022-11-21T12:38:16.899Z,98274.91
2022-11-21T12:41:23.780Z,98273.28
2022-11-21T12:44:03.031Z,98263.84
2022-11-21T12:46:53.310Z,98285.94
2022-11-21T12:50:01.126Z,98296.78
2022-11-21T12:52:56.366Z,98287.44
2022-11-21T12:55:43.654Z,98287.00
2022-11-21T12:58:39.109Z,98282.00
2022-11-21T13:01:39.383Z,98293.94
2022-11-21T13:04:13.665Z,98287.03
2022-11-21T13:06:44.443Z,98303.44
2022-11-21T13:09:19.300Z,98301.28
2022-11-21T13:12:03.182Z,98309.66
2022-11-21T13:14:42.342Z,98313.34
2022-11-21T13:17:27.569Z,98302.31
2022-11-21T13:20:31.737Z,98300.72
2022-11-21T13:23:02.134Z,98299.09
2022-11-21T13:25:32.128Z,98322.97
2022-11-21T13:28:14.104Z,98323.09
2022-11-21T13:30:54.353Z,98320.91
2022-11-21T13:33:37.413Z,98322.28
2022-11-21T13:36:34.366Z,98328.47
2022-11-21T13:39:05.197Z,98319.75
2022-11-21T13:41:53.750Z,98318.16
2022-11-21T13:44:34.010Z,98315.84
2022-11-21T13:47:11.242Z,98317.69
2022-11-21T13:49:44.986Z,98330.78
2022-11-21T13:52:32.262Z,98310.56
2022-11-21T13:55:44.414Z,98312.19
2022-11-21T13:58:38.876Z,98305.41
2022-11-21T14:01:32.910Z,98339.59
2022-11-21T14:04:09.793Z,98349.38
2022-11-21T14:06:43.861Z,98337.88
2022-11-21T14:09:14.195Z,98338.34
2022-11-21T14:11:52.387Z,98332.16
2022-11-21T14:14:47.462Z,98332.59
2022-11-21T14:17:38.465Z,98342.25
2022-11-21T14:20:14.687Z,98326.97
2022-11-21T14:23:19.026Z,98337.88
2022-11-21T14:25:54.408Z,98332.72
2022-11-21T14:28:32.456Z,98337.09
2022-11-21T14:31:04.706Z,98336.97
2022-11-21T14:33:42.351Z,98339.47
2022-11-21T14:36:15.858Z,98342.22
2022-11-21T14:39:28.828Z,98326.63
2022-11-21T14:41:50.366Z,98339.78
2022-11-21T14:44:19.488Z,98320.41
2022-11-21T14:46:55.064Z,98338.19
2022-11-21T14:49:29.691Z,98344.16
2022-11-21T14:52:26.967Z,98343.81
2022-11-21T14:57:45.194Z,98349.75
2022-11-21T15:00:43.512Z,98345.31
2022-11-21T15:03:03.830Z,98356.66
2022-11-21T15:06:00.782Z,98346.97
2022-11-21T15:11:13.864Z,98359.19
2022-11-21T15:14:12.268Z,98358.25
2022-11-21T15:16:30.625Z,98361.09
2022-11-21T15:18:58.029Z,98365.66
2022-11-21T15:21:25.187Z,98363.59
2022-11-21T15:23:55.571Z,98355.91
2022-11-21T15:26:34.248Z,98311.75
2022-11-21T15:29:01.540Z,98377.22
2022-11-21T15:31:29.210Z,98370.78
2022-11-21T15:37:15.386Z,98374.13
2022-11-21T15:39:51.977Z,98374.00
2022-11-21T15:42:36.724Z,98376.16
2022-11-21T15:45:26.759Z,98372.00
2022-11-21T15:47:55.671Z,98374.25
2022-11-21T15:50:25.151Z,98382.97
2022-11-21T15:52:54.203Z,98373.63
2022-11-21T15:55:29.276Z,98390.72
2022-11-21T15:57:56.451Z,98392.16
2022-11-21T16:00:23.658Z,98394.63
2022-11-21T16:02:50.917Z,98396.75
2022-11-21T16:05:18.766Z,98408.84
2022-11-21T16:07:53.052Z,98416.81
2022-11-21T16:10:27.424Z,98417.47
2022-11-21T16:12:57.378Z,98411.22
2022-11-21T16:15:25.188Z,98411.22
2022-11-21T16:17:53.133Z,98410.03
2022-11-21T16:20:20.654Z,98414.34
2022-11-21T16:22:48.285Z,98406.22
2022-11-21T16:25:17.207Z,98402.31
2022-11-21T16:27:47.873Z,98419.94
2022-11-21T16:30:16.052Z,98416.00
2022-11-21T16:32:43.476Z,98424.22
2022-11-21T16:35:12.238Z,98418.25
2022-11-21T16:37:42.061Z,98421.69
2022-11-21T16:40:11.002Z,98439.28
2022-11-21T16:42:38.332Z,98440.41
2022-11-21T16:45:06.005Z,98420.75
2022-11-21T16:47:42.068Z,98443.16
2022-11-21T16:50:16.558Z,98443.63
2022-11-21T16:52:49.718Z,98444.78
2022-11-21T16:55:17.976Z,98449.78
2022-11-21T16:57:45.206Z,98451.88
2022-11-21T17:00:12.463Z,98459.63
2022-11-21T17:02:39.542Z,98471.28
2022-11-21T17:05:07.373Z,98465.47
2022-11-21T17:07:36.822Z,98458.88
2022-11-21T17:10:05.810Z,98453.75
2022-11-21T17:12:40.147Z,98468.56
2022-11-21T17:15:11.561Z,98465.53
2022-11-21T17:17:39.104Z,98470.69
2022-11-21T17:20:08.363Z,98473.13
2022-11-21T17:22:37.500Z,98475.06
2022-11-21T17:25:05.313Z,98459.28
2022-11-21T17:27:32.713Z,98479.75
2022-11-21T17:29:59.859Z,98466.06
2022-11-21T17:32:26.953Z,98485.75
2022-11-21T17:34:54.017Z,98479.66
2022-11-21T17:37:21.494Z,98474.66
2022-11-21T17:39:48.867Z,98487.09
2022-11-21T17:42:16.089Z,98482.72
2022-11-21T17:44:43.167Z,98486.28
2022-11-21T17:47:10.553Z,98492.56
2022-11-21T17:49:37.775Z,98506.75
2022-11-21T17:52:07.151Z,98510.16
2022-11-21T17:54:34.465Z,98524.81
2022-11-21T17:57:04.452Z,98537.88
2022-11-21T17:59:32.958Z,98530.78
2022-11-21T18:02:03.292Z,98524.97
2022-11-21T18:04:30.392Z,98529.00
2022-11-21T18:06:59.520Z,98524.66
2022-11-21T18:09:26.799Z,98533.53
2022-11-21T18:11:54.102Z,98534.00
2022-11-21T18:14:22.557Z,98530.78
2022-11-21T18:16:53.400Z,98523.84
2022-11-21T18:19:21.178Z,98546.75
2022-11-21T18:21:48.522Z,98534.66
2022-11-21T18:24:15.473Z,98550.31
2022-11-21T18:26:42.428Z,98530.47
2022-11-21T18:32:06.059Z,98546.94
2022-11-21T18:34:33.270Z,98549.19
2022-11-21T18:37:00.251Z,98557.91
2022-11-21T18:39:27.367Z,98551.78
2022-11-21T18:41:54.560Z,98556.78
2022-11-21T18:44:22.478Z,98555.81
2022-11-21T18:46:50.024Z,98563.09
2022-11-21T18:49:19.466Z,98568.06
2022-11-21T18:51:46.425Z,98567.25
2022-11-21T18:54:13.909Z,98563.41
2022-11-21T18:56:41.508Z,98566.28
2022-11-21T18:59:08.496Z,98568.53
2022-11-21T19:01:40.138Z,98568.38
2022-11-21T19:04:07.887Z,98572.41
2022-11-21T19:06:35.007Z,98575.66
2022-11-21T19:09:02.207Z,98587.56
2022-11-21T19:11:30.350Z,98596.28
2022-11-21T19:14:00.580Z,98590.63
2022-11-21T19:16:31.310Z,98612.59
2022-11-21T19:21:49.518Z,98613.53
2022-11-21T19:24:17.309Z,98604.00
2022-11-21T19:26:50.637Z,98612.53
2022-11-21T19:29:17.874Z,98598.47
2022-11-21T19:31:46.103Z,98614.31
2022-11-21T19:34:16.973Z,98616.88
2022-11-21T19:36:44.883Z,98611.53
2022-11-21T19:39:12.339Z,98616.88
2022-11-21T19:41:39.493Z,98609.78
2022-11-21T19:44:06.612Z,98625.09
2022-11-21T19:46:38.565Z,98623.97
2022-11-21T19:49:19.388Z,98635.13
2022-11-21T19:51:46.351Z,98624.00
2022-11-21T19:54:13.899Z,98629.81
2022-11-21T19:56:40.919Z,98628.31
2022-11-21T19:59:10.395Z,98630.72
2022-11-21T20:01:38.688Z,98628.41
2022-11-21T20:04:07.457Z,98632.91
2022-11-21T20:06:37.329Z,98617.41
2022-11-21T20:09:07.306Z,98628.56
2022-11-21T20:11:35.388Z,98640.50
2022-11-21T20:14:03.047Z,98622.25
2022-11-21T20:16:33.241Z,98629.19
2022-11-21T20:19:03.380Z,98621.78
2022-11-21T20:21:32.121Z,98633.38
2022-11-21T20:24:00.965Z,98628.88
2022-11-21T20:26:28.476Z,98616.47
2022-11-21T20:28:55.979Z,98630.81
2022-11-21T20:31:29.048Z,98621.09
2022-11-21T20:34:04.444Z,98623.53
2022-11-21T20:36:34.203Z,98625.75
2022-11-21T20:39:05.486Z,98633.97
2022-11-21T20:41:35.846Z,98635.72
2022-11-21T20:46:57.246Z,98630.28
2022-11-21T20:49:27.154Z,98632.72
2022-11-21T20:53:43.883Z,98641.56
2022-11-21T20:54:41.318Z,98650.41
2022-11-21T20:57:14.297Z,98636.84
2022-11-21T20:59:45.414Z,98615.50
2022-11-21T21:02:14.215Z,98628.75
2022-11-21T21:04:42.460Z,98637.78
2022-11-21T21:07:09.696Z,98632.75
2022-11-21T21:09:36.856Z,98625.78
2022-11-21T21:12:05.427Z,98635.16
2022-11-21T21:14:32.516Z,98648.16
2022-11-21T21:16:59.549Z,98648.97
2022-11-21T21:19:26.780Z,98637.97
2022-11-21T21:21:54.049Z,98655.63
2022-11-21T21:24:20.997Z,98661.47
2022-11-21T21:26:49.577Z,98660.88
2022-11-21T21:29:19.569Z,98649.53
2022-11-21T21:31:52.390Z,98661.16
2022-11-21T21:34:23.338Z,98652.28
2022-11-21T21:36:51.460Z,98650.03
2022-11-21T21:39:18.655Z,98659.50
2022-11-21T21:41:47.338Z,98649.94
2022-11-21T21:44:15.419Z,98653.28
2022-11-21T21:46:43.032Z,98655.72
2022-11-21T21:49:10.062Z,98658.03
2022-11-21T21:51:37.860Z,98660.56
2022-11-21T21:54:05.298Z,98650.03
2022-11-21T21:56:33.847Z,98646.81
2022-11-21T21:59:00.952Z,98660.38
2022-11-21T22:01:30.636Z,98663.50
2022-11-21T22:04:02.815Z,98638.53
2022-11-21T22:06:31.464Z,98651.72
2022-11-21T22:09:01.465Z,98655.44
2022-11-21T22:11:31.757Z,98659.72
2022-11-21T22:14:02.905Z,98658.81
2022-11-21T22:16:30.724Z,98596.25
2022-11-21T22:18:58.126Z,98651.34
2022-11-21T22:21:32.594Z,98643.75
2022-11-21T22:26:48.409Z,98649.72
2022-11-21T22:29:15.242Z,98644.06
2022-11-21T22:31:42.056Z,98668.06
2022-11-21T22:34:12.329Z,98666.34
2022-11-21T22:36:39.410Z,98668.19
2022-11-21T22:39:07.515Z,98677.69
2022-11-21T22:41:34.633Z,98670.91
2022-11-21T22:44:01.733Z,98672.22
2022-11-21T22:46:29.702Z,98676.06
2022-11-21T22:48:56.803Z,98682.44
2022-11-21T22:51:26.494Z,98684.47
2022-11-21T22:53:53.676Z,98678.91
2022-11-21T22:56:23.139Z,98676.59
2022-11-21T22:58:51.014Z,98679.63
2022-11-21T23:01:20.693Z,98684.50
2022-11-21T23:03:48.279Z,98681.56
2022-11-21T23:06:17.962Z,98678.63
2022-11-21T23:08:45.578Z,98689.56
2022-11-21T23:11:31.620Z,98672.88
2022-11-21T23:14:00.000Z,98681.59
2022-11-21T23:16:26.972Z,98683.22
2022-11-21T23:18:55.050Z,98700.81
2022-11-21T23:21:22.581Z,98684.59
2022-11-21T23:23:50.151Z,98684.59
2022-11-21T23:26:17.335Z,98685.09
2022-11-21T23:28:44.463Z,98661.75
2022-11-21T23:31:11.619Z,98696.13
2022-11-21T23:33:38.675Z,98695.53
2022-11-21T23:36:05.904Z,98698.25
2022-11-21T23:38:32.904Z,98701.91
2022-11-21T23:40:59.735Z,98699.66
2022-11-21T23:43:27.314Z,98694.00
2022-11-21T23:45:54.998Z,98702.09
2022-11-21T23:48:24.404Z,98698.06
2022-11-21T23:50:51.774Z,98689.03
2022-11-21T23:53:19.868Z,98687.81
2022-11-21T23:55:47.055Z,98702.50
2022-11-21T23:58:14.401Z,98715.16
